PWSweather.com
Personal Weather Stations
Station Observations
IPODRAVI2
Croatia, Trnovec BartoloveckiHR

CroatiaTrnovec BartoloveckiHR

Lat: 46.2947, Lon: 16.3989

Elevation: 535

Station Type: Davis Vantage Pro2 plus

http://www.pljusak.com/trnovec1/wx.html

High Low Average
Temperature 42.8°F6.0°C 41.7°F5.4°C 42.3°F5.7°C
Dew Point 35.0°F1.7°C 33.6°F0.9°C 34.2°F1.2°C
Winds 18.0 mph 29.0 kmh 8.5 mph 13.7 kmh 13.0 mph SSW20.9 kmh SSW
Wind Gusts 26.0 mph41.8 kmh 12.0 mph19.3 kmh 19.0 mph30.6 kmh
Humidity 74% 71% 73%
Pressure 30.19 in1022.4 mb 30.11 in1019.6 mb -
Precipitation 0.00 in0.0 mm - -
Hour Temp Dew Point Humidity Winds Wind Gusts Pressure Precip Precip Rate Daily Precip Total
12:00 AM 41.7°F5.4°C 33.7°F0.9°C 73% 13.3 mph N21.4 kmh N 19.0 mph30.6 kmh 30.19 in1022.4 mb 0.00 in0.0 mm 0.00 in/hr0.0 mm/hr 0.00 in0.0 mm
12:10 AM 41.8°F5.4°C 33.8°F1.0°C 73% 12.4 mph NW20.0 kmh NW 21.0 mph33.8 kmh 30.19 in1022.4 mb 0.00 in0.0 mm 0.00 in/hr0.0 mm/hr 0.00 in0.0 mm
12:20 AM 41.9°F5.5°C 33.9°F1.1°C 73% 13.6 mph NNE21.9 kmh NNE 20.0 mph32.2 kmh 30.19 in1022.4 mb 0.00 in0.0 mm 0.00 in/hr0.0 mm/hr 0.00 in0.0 mm
12:30 AM 42.0°F5.6°C 33.9°F1.1°C 73% 15.5 mph NNW24.9 kmh NNW 21.0 mph33.8 kmh 30.19 in1022.4 mb 0.00 in0.0 mm 0.00 in/hr0.0 mm/hr 0.00 in0.0 mm
12:40 AM 42.0°F5.6°C 34.0°F1.1°C 73% 10.2 mph NW16.4 kmh NW 19.0 mph30.6 kmh 30.19 in1022.4 mb 0.00 in0.0 mm 0.00 in/hr0.0 mm/hr 0.00 in0.0 mm
12:50 AM 42.0°F5.6°C 34.0°F1.1°C 73% 11.3 mph N18.2 kmh N 14.0 mph22.5 kmh 30.19 in1022.4 mb 0.00 in0.0 mm 0.00 in/hr0.0 mm/hr 0.00 in0.0 mm
01:00 AM 42.0°F5.6°C 34.0°F1.1°C 73% 10.5 mph NNW16.9 kmh NNW 16.0 mph25.7 kmh 30.19 in1022.4 mb 0.00 in0.0 mm 0.00 in/hr0.0 mm/hr 0.00 in0.0 mm
01:10 AM 42.0°F5.6°C 33.9°F1.1°C 73% 8.5 mph N13.7 kmh N 12.0 mph19.3 kmh 30.18 in1022.0 mb 0.00 in0.0 mm 0.00 in/hr0.0 mm/hr 0.00 in0.0 mm
01:20 AM 41.9°F5.5°C 33.9°F1.1°C 73% 9.4 mph N15.1 kmh N 15.0 mph24.1 kmh 30.18 in1022.0 mb 0.00 in0.0 mm 0.00 in/hr0.0 mm/hr 0.00 in0.0 mm
01:30 AM 41.8°F5.4°C 33.8°F1.0°C 73% 12.7 mph NNW20.4 kmh NNW 21.0 mph33.8 kmh 30.18 in1022.0 mb 0.00 in0.0 mm 0.00 in/hr0.0 mm/hr 0.00 in0.0 mm
01:40 AM 41.8°F5.4°C 33.7°F0.9°C 73% 11.5 mph NNW18.5 kmh NNW 16.0 mph25.7 kmh 30.17 in1021.7 mb 0.00 in0.0 mm 0.00 in/hr0.0 mm/hr 0.00 in0.0 mm
01:50 AM 41.8°F5.4°C 33.8°F1.0°C 73% 11.7 mph NNE18.8 kmh NNE 17.0 mph27.4 kmh 30.17 in1021.7 mb 0.00 in0.0 mm 0.00 in/hr0.0 mm/hr 0.00 in0.0 mm
02:00 AM 41.8°F5.4°C 33.8°F1.0°C 73% 10.4 mph NNE16.7 kmh NNE 22.0 mph35.4 kmh 30.17 in1021.7 mb 0.00 in0.0 mm 0.00 in/hr0.0 mm/hr 0.00 in0.0 mm
02:10 AM 42.0°F5.6°C 33.6°F0.9°C 72% 9.1 mph N14.6 kmh N 14.0 mph22.5 kmh 30.17 in1021.7 mb 0.00 in0.0 mm 0.00 in/hr0.0 mm/hr 0.00 in0.0 mm
02:21 AM 42.1°F5.6°C 33.7°F0.9°C 72% 11.4 mph NNW18.3 kmh NNW 17.0 mph27.4 kmh 30.16 in1021.3 mb 0.00 in0.0 mm 0.00 in/hr0.0 mm/hr 0.00 in0.0 mm
02:22 AM 42.1°F5.6°C 33.7°F0.9°C 72% 12.3 mph NNW19.8 kmh NNW 14.0 mph22.5 kmh 30.16 in1021.3 mb 0.00 in0.0 mm 0.00 in/hr0.0 mm/hr 0.00 in0.0 mm
02:51 AM 42.5°F5.8°C 33.8°F1.0°C 71% 10.2 mph NE16.4 kmh NE 17.0 mph27.4 kmh 30.16 in1021.3 mb 0.00 in0.0 mm 0.00 in/hr0.0 mm/hr 0.00 in0.0 mm
03:01 AM 42.6°F5.9°C 34.2°F1.2°C 72% 12.5 mph N20.1 kmh N 17.0 mph27.4 kmh 30.15 in1021.0 mb 0.00 in0.0 mm 0.00 in/hr0.0 mm/hr 0.00 in0.0 mm
03:10 AM 42.6°F5.9°C 34.2°F1.2°C 72% 11.4 mph N18.3 kmh N 24.0 mph38.6 kmh 30.14 in1020.7 mb 0.00 in0.0 mm 0.00 in/hr0.0 mm/hr 0.00 in0.0 mm
03:20 AM 42.6°F5.9°C 33.8°F1.0°C 71% 14.1 mph NE22.7 kmh NE 21.0 mph33.8 kmh 30.14 in1020.7 mb 0.00 in0.0 mm 0.00 in/hr0.0 mm/hr 0.00 in0.0 mm
03:31 AM 42.5°F5.8°C 34.5°F1.4°C 73% 10.2 mph NNE16.4 kmh NNE 25.0 mph40.2 kmh 30.14 in1020.7 mb 0.00 in0.0 mm 0.00 in/hr0.0 mm/hr 0.00 in0.0 mm
03:40 AM 42.5°F5.8°C 34.5°F1.4°C 73% 10.8 mph NNW17.4 kmh NNW 21.0 mph33.8 kmh 30.14 in1020.7 mb 0.00 in0.0 mm 0.00 in/hr0.0 mm/hr 0.00 in0.0 mm
03:50 AM 42.5°F5.8°C 34.5°F1.4°C 73% 11.7 mph NE18.8 kmh NE 15.0 mph24.1 kmh 30.13 in1020.3 mb 0.00 in0.0 mm 0.00 in/hr0.0 mm/hr 0.00 in0.0 mm
04:01 AM 42.6°F5.9°C 34.2°F1.2°C 72% 14.6 mph NNW23.5 kmh NNW 18.0 mph29.0 kmh 30.13 in1020.3 mb 0.00 in0.0 mm 0.00 in/hr0.0 mm/hr 0.00 in0.0 mm
04:11 AM 42.7°F5.9°C 34.6°F1.4°C 73% 14.9 mph NNW24.0 kmh NNW 20.0 mph32.2 kmh 30.12 in1020.0 mb 0.00 in0.0 mm 0.00 in/hr0.0 mm/hr 0.00 in0.0 mm
04:21 AM 42.7°F5.9°C 34.6°F1.4°C 73% 10.7 mph NE17.2 kmh NE 19.0 mph30.6 kmh 30.12 in1020.0 mb 0.00 in0.0 mm 0.00 in/hr0.0 mm/hr 0.00 in0.0 mm
04:31 AM 42.7°F5.9°C 34.6°F1.4°C 73% 12.9 mph N20.8 kmh N 19.0 mph30.6 kmh 30.12 in1020.0 mb 0.00 in0.0 mm 0.00 in/hr0.0 mm/hr 0.00 in0.0 mm
04:41 AM 42.7°F5.9°C 34.6°F1.4°C 73% 15.5 mph N24.9 kmh N 23.0 mph37.0 kmh 30.12 in1020.0 mb 0.00 in0.0 mm 0.00 in/hr0.0 mm/hr 0.00 in0.0 mm
04:50 AM 42.7°F5.9°C 34.7°F1.5°C 73% 18.0 mph N29.0 kmh N 24.0 mph38.6 kmh 30.11 in1019.6 mb 0.00 in0.0 mm 0.00 in/hr0.0 mm/hr 0.00 in0.0 mm
05:01 AM 42.8°F6.0°C 34.7°F1.5°C 73% 14.8 mph N23.8 kmh N 24.0 mph38.6 kmh 30.11 in1019.6 mb 0.00 in0.0 mm 0.00 in/hr0.0 mm/hr 0.00 in0.0 mm
05:10 AM 42.8°F6.0°C 34.7°F1.5°C 73% 16.7 mph NE26.9 kmh NE 26.0 mph41.8 kmh 30.12 in1020.0 mb 0.00 in0.0 mm 0.00 in/hr0.0 mm/hr 0.00 in0.0 mm
05:20 AM 42.8°F6.0°C 34.7°F1.5°C 73% 16.1 mph NE25.9 kmh NE 26.0 mph41.8 kmh 30.12 in1020.0 mb 0.00 in0.0 mm 0.00 in/hr0.0 mm/hr 0.00 in0.0 mm
05:31 AM 42.7°F5.9°C 34.6°F1.4°C 73% 15.7 mph N25.3 kmh N 23.0 mph37.0 kmh 30.12 in1020.0 mb 0.00 in0.0 mm 0.00 in/hr0.0 mm/hr 0.00 in0.0 mm
05:41 AM 42.7°F5.9°C 35.0°F1.7°C 74% 11.7 mph NW18.8 kmh NW 16.0 mph25.7 kmh 30.12 in1020.0 mb 0.00 in0.0 mm 0.00 in/hr0.0 mm/hr 0.00 in0.0 mm
05:50 AM 42.7°F5.9°C 35.0°F1.7°C 74% 15.4 mph NNE24.8 kmh NNE 22.0 mph35.4 kmh 30.11 in1019.6 mb 0.00 in0.0 mm 0.00 in/hr0.0 mm/hr 0.00 in0.0 mm
06:01 AM 42.7°F5.9°C 35.0°F1.7°C 74% 12.5 mph N20.1 kmh N 20.0 mph32.2 kmh 30.11 in1019.6 mb 0.00 in0.0 mm 0.00 in/hr0.0 mm/hr 0.00 in0.0 mm
06:10 AM 42.7°F5.9°C 34.6°F1.4°C 73% 14.0 mph NE22.5 kmh NE 23.0 mph37.0 kmh 30.11 in1019.6 mb 0.00 in0.0 mm 0.00 in/hr0.0 mm/hr 0.00 in0.0 mm
06:20 AM 42.7°F5.9°C 35.0°F1.7°C 74% 14.6 mph N23.5 kmh N 20.0 mph32.2 kmh 30.11 in1019.6 mb 0.00 in0.0 mm 0.00 in/hr0.0 mm/hr 0.00 in0.0 mm
06:31 AM 42.7°F5.9°C 34.6°F1.4°C 73% 15.6 mph N25.1 kmh N 25.0 mph40.2 kmh 30.11 in1019.6 mb 0.00 in0.0 mm 0.00 in/hr0.0 mm/hr 0.00 in0.0 mm
06:40 AM 42.8°F6.0°C 34.7°F1.5°C 73% 15.0 mph NNW24.1 kmh NNW 26.0 mph41.8 kmh 30.11 in1019.6 mb 0.00 in0.0 mm 0.00 in/hr0.0 mm/hr 0.00 in0.0 mm
06:51 AM 42.8°F6.0°C 35.1°F1.7°C 74% 13.4 mph N21.6 kmh N 22.0 mph35.4 kmh 30.11 in1019.6 mb 0.00 in0.0 mm 0.00 in/hr0.0 mm/hr 0.00 in0.0 mm
07:01 AM 43.0°F6.1°C 34.9°F1.6°C 73% 16.2 mph NNW26.1 kmh NNW 20.0 mph32.2 kmh 30.11 in1019.6 mb 0.00 in0.0 mm 0.00 in/hr0.0 mm/hr 0.00 in0.0 mm
07:10 AM 43.2°F6.2°C 35.1°F1.7°C 73% 13.8 mph NNW22.2 kmh NNW 17.0 mph27.4 kmh 30.11 in1019.6 mb 0.00 in0.0 mm 0.00 in/hr0.0 mm/hr 0.00 in0.0 mm
07:21 AM 43.3°F6.3°C 34.9°F1.6°C 72% 15.8 mph NNE25.4 kmh NNE 26.0 mph41.8 kmh 30.11 in1019.6 mb 0.00 in0.0 mm 0.00 in/hr0.0 mm/hr 0.00 in0.0 mm
07:30 AM 43.4°F6.3°C 35.0°F1.7°C 72% 13.6 mph N21.9 kmh N 27.0 mph43.5 kmh 30.11 in1019.6 mb 0.00 in0.0 mm 0.00 in/hr0.0 mm/hr 0.00 in0.0 mm
07:40 AM 43.5°F6.4°C 35.1°F1.7°C 72% 14.7 mph N23.7 kmh N 22.0 mph35.4 kmh 30.11 in1019.6 mb 0.00 in0.0 mm 0.00 in/hr0.0 mm/hr 0.00 in0.0 mm
07:50 AM 43.6°F6.4°C 35.2°F1.8°C 72% 14.2 mph N22.9 kmh N 25.0 mph40.2 kmh 30.11 in1019.6 mb 0.00 in0.0 mm 0.00 in/hr0.0 mm/hr 0.00 in0.0 mm
08:00 AM 43.8°F6.6°C 35.4°F1.9°C 72% 16.5 mph NE26.6 kmh NE 24.0 mph38.6 kmh 30.11 in1019.6 mb 0.00 in0.0 mm 0.00 in/hr0.0 mm/hr 0.00 in0.0 mm
08:10 AM 44.0°F6.7°C 35.9°F2.2°C 73% 14.5 mph N23.3 kmh N 25.0 mph40.2 kmh 30.11 in1019.6 mb 0.00 in0.0 mm 0.00 in/hr0.0 mm/hr 0.00 in0.0 mm
08:20 AM 44.1°F6.7°C 36.0°F2.2°C 73% 10.9 mph N17.5 kmh N 18.0 mph29.0 kmh 30.11 in1019.6 mb 0.00 in0.0 mm 0.00 in/hr0.0 mm/hr 0.00 in0.0 mm
08:30 AM 44.4°F6.9°C 35.5°F1.9°C 71% 14.9 mph NNE24.0 kmh NNE 19.0 mph30.6 kmh 30.11 in1019.6 mb 0.00 in0.0 mm 0.00 in/hr0.0 mm/hr 0.00 in0.0 mm
08:40 AM 44.6°F7.0°C 35.8°F2.1°C 71% 12.8 mph NNE20.6 kmh NNE 21.0 mph33.8 kmh 30.11 in1019.6 mb 0.00 in0.0 mm 0.00 in/hr0.0 mm/hr 0.00 in0.0 mm
08:50 AM 44.9°F7.2°C 36.1°F2.3°C 71% 11.8 mph N19.0 kmh N 17.0 mph27.4 kmh 30.11 in1019.6 mb 0.00 in0.0 mm 0.00 in/hr0.0 mm/hr 0.00 in0.0 mm
09:00 AM 45.2°F7.3°C 36.0°F2.2°C 70% 16.1 mph N25.9 kmh N 26.0 mph41.8 kmh 30.11 in1019.6 mb 0.00 in0.0 mm 0.00 in/hr0.0 mm/hr 0.00 in0.0 mm
09:10 AM 45.4°F7.4°C 36.2°F2.3°C 70% 16.0 mph N25.7 kmh N 27.0 mph43.5 kmh 30.11 in1019.6 mb 0.00 in0.0 mm 0.00 in/hr0.0 mm/hr 0.00 in0.0 mm
09:20 AM 45.9°F7.7°C 36.3°F2.4°C 69% 13.1 mph N21.1 kmh N 16.0 mph25.7 kmh 30.11 in1019.6 mb 0.00 in0.0 mm 0.00 in/hr0.0 mm/hr 0.00 in0.0 mm
09:30 AM 46.4°F8.0°C 36.8°F2.7°C 69% 13.8 mph NE22.2 kmh NE 20.0 mph32.2 kmh 30.11 in1019.6 mb 0.00 in0.0 mm 0.00 in/hr0.0 mm/hr 0.00 in0.0 mm
09:40 AM 46.5°F8.1°C 36.1°F2.3°C 67% 12.7 mph N20.4 kmh N 21.0 mph33.8 kmh 30.11 in1019.6 mb 0.00 in0.0 mm 0.00 in/hr0.0 mm/hr 0.00 in0.0 mm
09:50 AM 46.6°F8.1°C 36.6°F2.6°C 68% 17.6 mph N28.3 kmh N 25.0 mph40.2 kmh 30.11 in1019.6 mb 0.00 in0.0 mm 0.00 in/hr0.0 mm/hr 0.00 in0.0 mm
10:00 AM 46.8°F8.2°C 36.0°F2.2°C 66% 14.9 mph N24.0 kmh N 20.0 mph32.2 kmh 30.11 in1019.6 mb 0.00 in0.0 mm 0.00 in/hr0.0 mm/hr 0.00 in0.0 mm
10:10 AM 46.7°F8.2°C 35.9°F2.2°C 66% 14.2 mph NE22.9 kmh NE 20.0 mph32.2 kmh 30.11 in1019.6 mb 0.00 in0.0 mm 0.00 in/hr0.0 mm/hr 0.00 in0.0 mm
10:20 AM 46.9°F8.3°C 36.1°F2.3°C 66% 12.9 mph N20.8 kmh N 16.0 mph25.7 kmh 30.11 in1019.6 mb 0.00 in0.0 mm 0.00 in/hr0.0 mm/hr 0.00 in0.0 mm
10:30 AM 47.1°F8.4°C 36.3°F2.4°C 66% 13.8 mph N22.2 kmh N 18.0 mph29.0 kmh 30.11 in1019.6 mb 0.00 in0.0 mm 0.00 in/hr0.0 mm/hr 0.00 in0.0 mm
10:40 AM 47.3°F8.5°C 36.5°F2.5°C 66% 15.1 mph N24.3 kmh N 25.0 mph40.2 kmh 30.10 in1019.3 mb 0.00 in0.0 mm 0.00 in/hr0.0 mm/hr 0.00 in0.0 mm
10:50 AM 47.4°F8.6°C 36.6°F2.6°C 66% 13.2 mph N21.2 kmh N 24.0 mph38.6 kmh 30.09 in1019.0 mb 0.00 in0.0 mm 0.00 in/hr0.0 mm/hr 0.00 in0.0 mm
11:00 AM 47.7°F8.7°C 37.3°F2.9°C 67% 8.5 mph N13.7 kmh N 18.0 mph29.0 kmh 30.09 in1019.0 mb 0.00 in0.0 mm 0.00 in/hr0.0 mm/hr 0.00 in0.0 mm
11:10 AM 47.9°F8.8°C 36.7°F2.6°C 65% 12.6 mph NNE20.3 kmh NNE 23.0 mph37.0 kmh 30.09 in1019.0 mb 0.00 in0.0 mm 0.00 in/hr0.0 mm/hr 0.00 in0.0 mm
11:20 AM 47.8°F8.8°C 36.6°F2.6°C 65% 14.8 mph NE23.8 kmh NE 21.0 mph33.8 kmh 30.09 in1019.0 mb 0.00 in0.0 mm 0.00 in/hr0.0 mm/hr 0.00 in0.0 mm
11:30 AM 47.9°F8.8°C 36.3°F2.4°C 64% 13.5 mph NE21.7 kmh NE 17.0 mph27.4 kmh 30.09 in1019.0 mb 0.00 in0.0 mm 0.00 in/hr0.0 mm/hr 0.00 in0.0 mm
11:40 AM 47.9°F8.8°C 37.1°F2.8°C 66% 5.3 mph N8.5 kmh N 9.0 mph14.5 kmh 30.08 in1018.6 mb 0.00 in0.0 mm 0.00 in/hr0.0 mm/hr 0.00 in0.0 mm
11:50 AM 48.1°F8.9°C 36.5°F2.5°C 64% 11.3 mph NNW18.2 kmh NNW 19.0 mph30.6 kmh 30.08 in1018.6 mb 0.00 in0.0 mm 0.00 in/hr0.0 mm/hr 0.00 in0.0 mm
12:00 PM 48.2°F9.0°C 37.0°F2.8°C 65% 6.5 mph N10.5 kmh N 15.0 mph24.1 kmh 30.08 in1018.6 mb 0.00 in0.0 mm 0.00 in/hr0.0 mm/hr 0.00 in0.0 mm
12:10 PM 48.3°F9.1°C 36.7°F2.6°C 64% 8.5 mph NNE13.7 kmh NNE 16.0 mph25.7 kmh 30.09 in1019.0 mb 0.00 in0.0 mm 0.00 in/hr0.0 mm/hr 0.00 in0.0 mm
12:20 PM 48.3°F9.1°C 37.5°F3.1°C 66% 7.2 mph N11.6 kmh N 16.0 mph25.7 kmh 30.08 in1018.6 mb 0.00 in0.0 mm 0.00 in/hr0.0 mm/hr 0.00 in0.0 mm
12:30 PM 48.3°F9.1°C 37.5°F3.1°C 66% 4.4 mph NNE7.1 kmh NNE 10.0 mph16.1 kmh 30.08 in1018.6 mb 0.00 in0.0 mm 0.00 in/hr0.0 mm/hr 0.00 in0.0 mm
12:40 PM 48.3°F9.1°C 37.9°F3.3°C 67% 7.2 mph NNE11.6 kmh NNE 11.0 mph17.7 kmh 30.08 in1018.6 mb 0.00 in0.0 mm 0.00 in/hr0.0 mm/hr 0.00 in0.0 mm
12:50 PM 48.3°F9.1°C 37.8°F3.2°C 67% 7.0 mph NE11.3 kmh NE 8.0 mph12.9 kmh 30.08 in1018.6 mb 0.00 in0.0 mm 0.00 in/hr0.0 mm/hr 0.00 in0.0 mm
01:00 PM 48.2°F9.0°C 38.1°F3.4°C 68% 6.0 mph NE9.7 kmh NE 9.0 mph14.5 kmh 30.08 in1018.6 mb 0.00 in0.0 mm 0.00 in/hr0.0 mm/hr 0.00 in0.0 mm
01:10 PM 48.2°F9.0°C 38.1°F3.4°C 68% 7.8 mph NE12.6 kmh NE 11.0 mph17.7 kmh 30.08 in1018.6 mb 0.00 in0.0 mm 0.00 in/hr0.0 mm/hr 0.00 in0.0 mm
01:20 PM 48.2°F9.0°C 37.8°F3.2°C 67% 8.4 mph NNE13.5 kmh NNE 14.0 mph22.5 kmh 30.07 in1018.3 mb 0.00 in0.0 mm 0.00 in/hr0.0 mm/hr 0.00 in0.0 mm
01:30 PM 48.5°F9.2°C 37.7°F3.2°C 66% 8.7 mph N14.0 kmh N 11.0 mph17.7 kmh 30.07 in1018.3 mb 0.00 in0.0 mm 0.00 in/hr0.0 mm/hr 0.00 in0.0 mm
01:40 PM 48.6°F9.2°C 37.8°F3.2°C 66% 8.2 mph NNE13.2 kmh NNE 13.0 mph20.9 kmh 30.07 in1018.3 mb 0.00 in0.0 mm 0.00 in/hr0.0 mm/hr 0.00 in0.0 mm
01:50 PM 48.8°F9.3°C 37.2°F2.9°C 64% 6.9 mph NNE11.1 kmh NNE 12.0 mph19.3 kmh 30.06 in1017.9 mb 0.00 in0.0 mm 0.00 in/hr0.0 mm/hr 0.00 in0.0 mm
02:00 PM 48.9°F9.4°C 37.6°F3.1°C 65% 7.0 mph NNE11.3 kmh NNE 13.0 mph20.9 kmh 30.07 in1018.3 mb 0.00 in0.0 mm 0.00 in/hr0.0 mm/hr 0.00 in0.0 mm
02:10 PM 49.1°F9.5°C 37.4°F3.0°C 64% 5.3 mph NE8.5 kmh NE 10.0 mph16.1 kmh 30.07 in1018.3 mb 0.00 in0.0 mm 0.00 in/hr0.0 mm/hr 0.00 in0.0 mm
02:20 PM 49.1°F9.5°C 37.5°F3.1°C 64% 8.0 mph NE12.9 kmh NE 14.0 mph22.5 kmh 30.07 in1018.3 mb 0.00 in0.0 mm 0.00 in/hr0.0 mm/hr 0.00 in0.0 mm
02:30 PM 49.2°F9.6°C 37.9°F3.3°C 65% 5.9 mph N9.5 kmh N 8.0 mph12.9 kmh 30.06 in1017.9 mb 0.00 in0.0 mm 0.00 in/hr0.0 mm/hr 0.00 in0.0 mm
02:40 PM 49.2°F9.6°C 39.1°F3.9°C 68% 9.1 mph NNE14.6 kmh NNE 15.0 mph24.1 kmh 30.05 in1017.6 mb 0.00 in0.0 mm 0.00 in/hr0.0 mm/hr 0.00 in0.0 mm
02:50 PM 49.3°F9.6°C 39.9°F4.4°C 70% 8.0 mph NE12.9 kmh NE 11.0 mph17.7 kmh 30.06 in1017.9 mb 0.00 in0.0 mm 0.00 in/hr0.0 mm/hr 0.00 in0.0 mm
03:00 PM 49.2°F9.6°C 40.2°F4.6°C 71% 8.2 mph N13.2 kmh N 11.0 mph17.7 kmh 30.05 in1017.6 mb 0.00 in0.0 mm 0.00 in/hr0.0 mm/hr 0.00 in0.0 mm
03:10 PM 49.5°F9.7°C 40.1°F4.5°C 70% 8.6 mph N13.8 kmh N 12.0 mph19.3 kmh 30.05 in1017.6 mb 0.00 in0.0 mm 0.00 in/hr0.0 mm/hr 0.00 in0.0 mm
03:20 PM 49.9°F9.9°C 40.1°F4.5°C 69% 6.2 mph N10.0 kmh N 10.0 mph16.1 kmh 30.05 in1017.6 mb 0.00 in0.0 mm 0.00 in/hr0.0 mm/hr 0.00 in0.0 mm
03:30 PM 50.0°F10.0°C 40.2°F4.6°C 69% 4.8 mph NE7.7 kmh NE 10.0 mph16.1 kmh 30.05 in1017.6 mb 0.00 in0.0 mm 0.00 in/hr0.0 mm/hr 0.00 in0.0 mm
03:40 PM 50.0°F10.0°C 40.2°F4.6°C 69% 4.8 mph NE7.7 kmh NE 5.0 mph8.0 kmh 30.05 in1017.6 mb 0.00 in0.0 mm 0.00 in/hr0.0 mm/hr 0.00 in0.0 mm
03:50 PM 49.9°F9.9°C 39.8°F4.3°C 68% 5.6 mph N9.0 kmh N 10.0 mph16.1 kmh 30.04 in1017.3 mb 0.00 in0.0 mm 0.00 in/hr0.0 mm/hr 0.00 in0.0 mm
04:00 PM 49.8°F9.9°C 40.4°F4.7°C 70% 7.3 mph NNE11.7 kmh NNE 12.0 mph19.3 kmh 30.04 in1017.3 mb 0.00 in0.0 mm 0.00 in/hr0.0 mm/hr 0.00 in0.0 mm
04:10 PM 50.1°F10.1°C 40.0°F4.4°C 68% 7.3 mph NNW11.7 kmh NNW 11.0 mph17.7 kmh 30.03 in1016.9 mb 0.00 in0.0 mm 0.00 in/hr0.0 mm/hr 0.00 in0.0 mm
04:21 PM 50.6°F10.3°C 39.7°F4.3°C 66% 8.1 mph N13.0 kmh N 10.0 mph16.1 kmh 30.03 in1016.9 mb 0.00 in0.0 mm 0.00 in/hr0.0 mm/hr 0.00 in0.0 mm
04:31 PM 50.8°F10.4°C 39.5°F4.2°C 65% 8.6 mph N13.8 kmh N 13.0 mph20.9 kmh 30.03 in1016.9 mb 0.00 in0.0 mm 0.00 in/hr0.0 mm/hr 0.00 in0.0 mm
04:40 PM 50.9°F10.5°C 39.5°F4.2°C 65% 6.8 mph N10.9 kmh N 10.0 mph16.1 kmh 30.03 in1016.9 mb 0.00 in0.0 mm 0.00 in/hr0.0 mm/hr 0.00 in0.0 mm
04:50 PM 51.0°F10.6°C 39.6°F4.2°C 65% 5.9 mph N9.5 kmh N 8.0 mph12.9 kmh 30.03 in1016.9 mb 0.00 in0.0 mm 0.00 in/hr0.0 mm/hr 0.00 in0.0 mm
05:01 PM 51.0°F10.6°C 39.6°F4.2°C 65% 4.1 mph NNE6.6 kmh NNE 6.0 mph9.7 kmh 30.03 in1016.9 mb 0.00 in0.0 mm 0.00 in/hr0.0 mm/hr 0.00 in0.0 mm
05:10 PM 51.1°F10.6°C 39.7°F4.3°C 65% 3.7 mph N6.0 kmh N 7.0 mph11.3 kmh 30.03 in1016.9 mb 0.00 in0.0 mm 0.00 in/hr0.0 mm/hr 0.00 in0.0 mm
05:21 PM 51.4°F10.8°C 40.0°F4.4°C 65% 5.0 mph N8.0 kmh N 9.0 mph14.5 kmh 30.03 in1016.9 mb 0.00 in0.0 mm 0.00 in/hr0.0 mm/hr 0.00 in0.0 mm
05:31 PM 51.5°F10.8°C 40.1°F4.5°C 65% 4.9 mph N7.9 kmh N 8.0 mph12.9 kmh 30.03 in1016.9 mb 0.00 in0.0 mm 0.00 in/hr0.0 mm/hr 0.00 in0.0 mm
05:41 PM 51.4°F10.8°C 40.0°F4.4°C 65% 4.2 mph N6.8 kmh N 8.0 mph12.9 kmh 30.02 in1016.6 mb 0.00 in0.0 mm 0.00 in/hr0.0 mm/hr 0.00 in0.0 mm
05:51 PM 51.0°F10.6°C 40.1°F4.5°C 66% 3.0 mph NW4.8 kmh NW 5.0 mph8.0 kmh 30.02 in1016.6 mb 0.00 in0.0 mm 0.00 in/hr0.0 mm/hr 0.00 in0.0 mm
06:01 PM 50.9°F10.5°C 39.9°F4.4°C 66% 2.2 mph N3.5 kmh N 3.0 mph4.8 kmh 30.02 in1016.6 mb 0.00 in0.0 mm 0.00 in/hr0.0 mm/hr 0.00 in0.0 mm
06:10 PM 50.8°F10.4°C 39.8°F4.3°C 66% 1.9 mph N3.1 kmh N 4.0 mph6.4 kmh 30.02 in1016.6 mb 0.00 in0.0 mm 0.00 in/hr0.0 mm/hr 0.00 in0.0 mm
06:20 PM 50.7°F10.4°C 39.7°F4.3°C 66% 0.1 mph N0.2 kmh N -- 30.02 in1016.6 mb 0.00 in0.0 mm 0.00 in/hr0.0 mm/hr 0.00 in0.0 mm
06:31 PM 50.5°F10.3°C 40.0°F4.4°C 67% 2.4 mph N3.9 kmh N 4.0 mph6.4 kmh 30.01 in1016.3 mb 0.00 in0.0 mm 0.00 in/hr0.0 mm/hr 0.00 in0.0 mm
06:40 PM 50.3°F10.2°C 40.2°F4.6°C 68% 0.7 mph N1.1 kmh N 2.0 mph3.2 kmh 30.01 in1016.3 mb 0.00 in0.0 mm 0.00 in/hr0.0 mm/hr 0.00 in0.0 mm
06:50 PM 50.2°F10.1°C 40.0°F4.4°C 68% 0.7 mph N1.1 kmh N 2.0 mph3.2 kmh 30.01 in1016.3 mb 0.00 in0.0 mm 0.00 in/hr0.0 mm/hr 0.00 in0.0 mm
07:01 PM 50.0°F10.0°C 40.2°F4.6°C 69% 0.7 mph N1.1 kmh N 3.0 mph4.8 kmh 30.01 in1016.3 mb 0.00 in0.0 mm 0.00 in/hr0.0 mm/hr 0.00 in0.0 mm
07:10 PM 49.9°F9.9°C 40.5°F4.7°C 70% 0.4 mph N0.6 kmh N 2.0 mph3.2 kmh 30.01 in1016.3 mb 0.00 in0.0 mm 0.00 in/hr0.0 mm/hr 0.00 in0.0 mm
07:21 PM 49.6°F9.8°C 40.2°F4.6°C 70% 0.2 mph N0.3 kmh N 2.0 mph3.2 kmh 30.01 in1016.3 mb 0.00 in0.0 mm 0.00 in/hr0.0 mm/hr 0.00 in0.0 mm
07:31 PM 49.3°F9.6°C 40.7°F4.8°C 72% 0.2 mph N0.3 kmh N -- 30.01 in1016.3 mb 0.00 in0.0 mm 0.00 in/hr0.0 mm/hr 0.00 in0.0 mm
07:40 PM 49.0°F9.4°C 40.7°F4.8°C 73% 0.5 mph N0.8 kmh N 1.0 mph1.6 kmh 30.01 in1016.3 mb 0.00 in0.0 mm 0.00 in/hr0.0 mm/hr 0.00 in0.0 mm
07:50 PM 48.7°F9.3°C 40.8°F4.9°C 74% Calm Calm -- 30.01 in1016.3 mb 0.00 in0.0 mm 0.00 in/hr0.0 mm/hr 0.00 in0.0 mm
08:01 PM 48.5°F9.2°C 41.3°F5.2°C 76% 0.3 mph N0.5 kmh N 1.0 mph1.6 kmh 30.01 in1016.3 mb 0.00 in0.0 mm 0.00 in/hr0.0 mm/hr 0.00 in0.0 mm
08:10 PM 48.2°F9.0°C 41.0°F5.0°C 76% 1.6 mph N2.6 kmh N 3.0 mph4.8 kmh 30.01 in1016.3 mb 0.00 in0.0 mm 0.00 in/hr0.0 mm/hr 0.00 in0.0 mm
08:20 PM 48.0°F8.9°C 41.2°F5.1°C 77% 0.7 mph N1.1 kmh N 3.0 mph4.8 kmh 30.00 in1015.9 mb 0.00 in0.0 mm 0.00 in/hr0.0 mm/hr 0.00 in0.0 mm
08:30 PM 47.9°F8.8°C 40.7°F4.8°C 76% 0.7 mph N1.1 kmh N 2.0 mph3.2 kmh 30.01 in1016.3 mb 0.00 in0.0 mm 0.00 in/hr0.0 mm/hr 0.00 in0.0 mm
08:40 PM 47.9°F8.8°C 41.0°F5.0°C 77% 0.2 mph N0.3 kmh N 1.0 mph1.6 kmh 30.01 in1016.3 mb 0.00 in0.0 mm 0.00 in/hr0.0 mm/hr 0.00 in0.0 mm
08:50 PM 47.9°F8.8°C 41.4°F5.2°C 78% 1.3 mph N2.1 kmh N 3.0 mph4.8 kmh 30.00 in1015.9 mb 0.00 in0.0 mm 0.00 in/hr0.0 mm/hr 0.00 in0.0 mm
09:01 PM 47.8°F8.8°C 40.9°F4.9°C 77% 1.7 mph N2.7 kmh N 3.0 mph4.8 kmh 30.00 in1015.9 mb 0.00 in0.0 mm 0.00 in/hr0.0 mm/hr 0.00 in0.0 mm
09:10 PM 47.8°F8.8°C 40.6°F4.8°C 76% 1.3 mph WNW2.1 kmh WNW 4.0 mph6.4 kmh 30.00 in1015.9 mb 0.00 in0.0 mm 0.00 in/hr0.0 mm/hr 0.00 in0.0 mm
09:20 PM 47.7°F8.7°C 40.5°F4.7°C 76% 2.2 mph NW3.5 kmh NW 3.0 mph4.8 kmh 30.00 in1015.9 mb 0.00 in0.0 mm 0.00 in/hr0.0 mm/hr 0.00 in0.0 mm
09:31 PM 47.7°F8.7°C 40.5°F4.7°C 76% 0.9 mph NW1.4 kmh NW 3.0 mph4.8 kmh 30.00 in1015.9 mb 0.00 in0.0 mm 0.00 in/hr0.0 mm/hr 0.00 in0.0 mm
09:41 PM 47.8°F8.8°C 40.6°F4.8°C 76% 1.2 mph NW1.9 kmh NW 3.0 mph4.8 kmh 30.00 in1015.9 mb 0.00 in0.0 mm 0.00 in/hr0.0 mm/hr 0.00 in0.0 mm
09:50 PM 47.9°F8.8°C 40.4°F4.7°C 75% 1.4 mph NW2.3 kmh NW 4.0 mph6.4 kmh 30.00 in1015.9 mb 0.00 in0.0 mm 0.00 in/hr0.0 mm/hr 0.00 in0.0 mm
10:01 PM 48.0°F8.9°C 40.5°F4.7°C 75% 2.7 mph NW4.3 kmh NW 3.0 mph4.8 kmh 29.99 in1015.6 mb 0.00 in0.0 mm 0.00 in/hr0.0 mm/hr 0.00 in0.0 mm
10:10 PM 47.9°F8.8°C 40.4°F4.7°C 75% 1.9 mph NW3.1 kmh NW 3.0 mph4.8 kmh 29.99 in1015.6 mb 0.00 in0.0 mm 0.00 in/hr0.0 mm/hr 0.00 in0.0 mm
10:20 PM 48.0°F8.9°C 40.4°F4.7°C 75% 0.9 mph NW1.4 kmh NW 2.0 mph3.2 kmh 29.99 in1015.6 mb 0.00 in0.0 mm 0.00 in/hr0.0 mm/hr 0.00 in0.0 mm
10:30 PM 47.9°F8.8°C 40.4°F4.7°C 75% 1.6 mph NW2.6 kmh NW 3.0 mph4.8 kmh 29.99 in1015.6 mb 0.00 in0.0 mm 0.00 in/hr0.0 mm/hr 0.00 in0.0 mm
10:40 PM 47.9°F8.8°C 40.7°F4.8°C 76% 1.8 mph NW2.9 kmh NW 3.0 mph4.8 kmh 29.98 in1015.2 mb 0.00 in0.0 mm 0.00 in/hr0.0 mm/hr 0.00 in0.0 mm
10:50 PM 47.8°F8.8°C 40.9°F4.9°C 77% 1.5 mph NW2.4 kmh NW 3.0 mph4.8 kmh 29.98 in1015.2 mb 0.00 in0.0 mm 0.00 in/hr0.0 mm/hr 0.00 in0.0 mm
11:00 PM 47.6°F8.7°C 41.1°F5.1°C 78% 1.7 mph NW2.7 kmh NW 3.0 mph4.8 kmh 29.98 in1015.2 mb 0.00 in0.0 mm 0.00 in/hr0.0 mm/hr 0.00 in0.0 mm
11:10 PM 47.5°F8.6°C 41.0°F5.0°C 78% 0.9 mph NW1.4 kmh NW 2.0 mph3.2 kmh 29.97 in1014.9 mb 0.00 in0.0 mm 0.00 in/hr0.0 mm/hr 0.00 in0.0 mm
11:20 PM 47.4°F8.6°C 40.9°F4.9°C 78% 0.8 mph NW1.3 kmh NW 2.0 mph3.2 kmh 29.96 in1014.6 mb 0.00 in0.0 mm 0.00 in/hr0.0 mm/hr 0.00 in0.0 mm
11:30 PM 47.4°F8.6°C 40.5°F4.7°C 77% 1.8 mph NW2.9 kmh NW 3.0 mph4.8 kmh 29.96 in1014.6 mb 0.00 in0.0 mm 0.00 in/hr0.0 mm/hr 0.00 in0.0 mm
11:40 PM 47.5°F8.6°C 40.3°F4.6°C 76% 1.2 mph NW1.9 kmh NW 2.0 mph3.2 kmh 29.96 in1014.6 mb 0.00 in0.0 mm 0.00 in/hr0.0 mm/hr 0.00 in0.0 mm
11:50 PM 47.6°F8.7°C 40.4°F4.7°C 76% 0.6 mph NW1.0 kmh NW 1.0 mph1.6 kmh 29.97 in1014.9 mb 0.00 in0.0 mm 0.00 in/hr0.0 mm/hr 0.00 in0.0 mm